Time;durP1;ratioP1;P1;durP2;ratioP2;P2;SDS_P1;SDS_P2;PMS_P1;PMS_P2;Temp;Humidity;BMP_temperature;BMP_pressure;BME280_temperature;BME280_humidity;BME280_pressure;Samples;Min_cycle;Max_cycle;Signal;HPM_P1;HPM_P2
2021/07/30 00:01:27;;;;;;;;;;;24.50;73.10;;;;;;5195350;28;19929;-66
2021/07/30 00:03:59;;;;;;;;;;;24.40;73.00;;;;;;5194562;28;19929;-66
2021/07/30 00:06:32;;;;;;;;;;;24.40;73.10;;;;;;5192679;28;19932;-66
2021/07/30 00:09:04;;;;;;;;;;;24.40;72.90;;;;;;5197466;28;19929;-66
2021/07/30 00:11:36;;;;;;;;;;;24.40;73.00;;;;;;5197247;28;19932;-66
2021/07/30 00:14:08;;;;;;;;;;;24.50;73.20;;;;;;5199757;28;19929;-66
2021/07/30 00:16:41;;;;;;;;;;;24.50;73.20;;;;;;5201023;28;20547;-64
2021/07/30 00:19:13;;;;;;;;;;;24.40;73.30;;;;;;5212252;28;20415;-64
2021/07/30 00:21:45;;;;;;;;;;;24.50;73.20;;;;;;5194665;28;19932;-65
2021/07/30 00:24:18;;;;;;;;;;;24.40;73.20;;;;;;5201407;28;19933;-64
2021/07/30 00:26:50;;;;;;;;;;;24.50;73.20;;;;;;5195522;28;20198;-64
2021/07/30 00:29:22;;;;;;;;;;;24.40;73.20;;;;;;5197903;28;20278;-64
2021/07/30 00:31:55;;;;;;;;;;;24.40;72.90;;;;;;5203841;28;19929;-64
2021/07/30 00:34:28;;;;;;;;;;;24.40;72.90;;;;;;5197106;28;19925;-64
2021/07/30 00:37:08;;;;;;;;;;;24.40;72.90;;;;;;5202068;28;19936;-64
2021/07/30 00:39:40;;;;;;;;;;;24.40;72.70;;;;;;5196970;28;19925;-64
2021/07/30 00:42:13;;;;;;;;;;;24.40;72.90;;;;;;5196196;28;19932;-65
2021/07/30 00:44:45;;;;;;;;;;;24.40;72.90;;;;;;5201260;28;19929;-64
2021/07/30 00:47:18;;;;;;;;;;;24.40;72.80;;;;;;5200623;28;19928;-64
2021/07/30 00:49:50;;;;;;;;;;;24.40;72.80;;;;;;5200182;28;19925;-65
2021/07/30 00:52:24;;;;;;;;;;;24.40;72.80;;;;;;5197528;28;19939;-64
2021/07/30 00:54:56;;;;;;;;;;;24.40;72.80;;;;;;5203037;28;19928;-64
2021/07/30 00:57:29;;;;;;;;;;;24.40;72.90;;;;;;5199000;28;20297;-65
2021/07/30 01:00:01;;;;;;;;;;;24.40;72.80;;;;;;5196160;28;19933;-64
2021/07/30 01:02:34;;;;;;;;;;;24.40;72.90;;;;;;5198830;28;19936;-65
2021/07/30 01:05:10;;;;;;;;;;;24.40;72.90;;;;;;5195433;28;19933;-65
2021/07/30 01:07:42;;;;;;;;;;;24.30;72.80;;;;;;5199668;28;19929;-65
2021/07/30 01:10:15;;;;;;;;;;;24.30;72.80;;;;;;5196524;28;19925;-65
2021/07/30 01:12:47;;;;;;;;;;;24.30;72.80;;;;;;5198628;28;20405;-64
2021/07/30 01:15:19;;;;;;;;;;;24.30;72.80;;;;;;5203005;28;19929;-64
2021/07/30 01:17:51;;;;;;;;;;;24.40;73.20;;;;;;5191256;28;19976;-64
2021/07/30 01:20:24;;;;;;;;;;;24.30;73.10;;;;;;5199788;28;19952;-64
2021/07/30 01:22:57;;;;;;;;;;;24.30;73.40;;;;;;5196902;28;19932;-64
2021/07/30 01:25:30;;;;;;;;;;;24.30;73.10;;;;;;5195330;28;20398;-64
2021/07/30 01:28:05;;;;;;;;;;;24.30;73.20;;;;;;5206520;28;19939;-64
2021/07/30 01:30:37;;;;;;;;;;;24.30;73.10;;;;;;5198198;28;19940;-64
2021/07/30 01:33:09;;;;;;;;;;;24.30;73.00;;;;;;5202013;28;19941;-64
2021/07/30 01:35:42;;;;;;;;;;;24.30;73.10;;;;;;5196857;28;19937;-64
2021/07/30 01:38:14;;;;;;;;;;;24.30;73.10;;;;;;5201374;28;19933;-64
2021/07/30 01:40:46;;;;;;;;;;;24.30;72.80;;;;;;5198611;28;19936;-65
2021/07/30 01:43:18;;;;;;;;;;;24.30;72.70;;;;;;5197569;28;19929;-64
2021/07/30 01:45:50;;;;;;;;;;;24.30;72.80;;;;;;5200946;28;19932;-64
2021/07/30 01:48:23;;;;;;;;;;;24.30;72.80;;;;;;5192454;28;19933;-64
2021/07/30 01:50:55;;;;;;;;;;;24.30;72.70;;;;;;5195264;28;19929;-64
2021/07/30 01:53:27;;;;;;;;;;;24.30;72.70;;;;;;5201277;28;19933;-64
2021/07/30 01:56:08;;;;;;;;;;;24.30;72.70;;;;;;5196758;28;19933;-64
2021/07/30 01:58:40;;;;;;;;;;;24.30;72.70;;;;;;5210921;28;19991;-65
2021/07/30 02:01:12;;;;;;;;;;;24.30;72.80;;;;;;5197802;28;19929;-64
2021/07/30 02:03:45;;;;;;;;;;;24.30;72.60;;;;;;5200498;28;19925;-64
2021/07/30 02:06:17;;;;;;;;;;;24.30;72.60;;;;;;5196661;28;19925;-64
2021/07/30 02:08:49;;;;;;;;;;;24.30;72.80;;;;;;5201816;28;20019;-65
2021/07/30 02:11:22;;;;;;;;;;;24.30;72.60;;;;;;5194839;28;19936;-65
2021/07/30 02:16:46;;;;;;;;;;;24.30;72.50;;;;;;5192032;28;19929;-65
2021/07/30 02:19:19;;;;;;;;;;;24.30;72.50;;;;;;5199247;28;19932;-64
2021/07/30 02:21:52;;;;;;;;;;;24.30;72.30;;;;;;5203201;28;20416;-64
2021/07/30 02:24:24;;;;;;;;;;;24.30;72.40;;;;;;5202549;28;20301;-65
2021/07/30 02:26:56;;;;;;;;;;;24.30;72.40;;;;;;5197669;28;19929;-64
2021/07/30 02:29:29;;;;;;;;;;;24.30;72.40;;;;;;5195843;28;20408;-64
2021/07/30 02:32:01;;;;;;;;;;;24.30;72.40;;;;;;5194449;28;19933;-64
2021/07/30 02:34:33;;;;;;;;;;;24.30;72.30;;;;;;5201629;28;19933;-64
2021/07/30 02:37:05;;;;;;;;;;;24.30;72.30;;;;;;5196175;28;20415;-65
2021/07/30 02:39:37;;;;;;;;;;;24.30;72.30;;;;;;5202275;28;19925;-64
2021/07/30 02:42:09;;;;;;;;;;;24.30;72.20;;;;;;5203840;28;19940;-65
2021/07/30 02:44:42;;;;;;;;;;;24.30;72.20;;;;;;5207444;28;19936;-65
2021/07/30 02:47:14;;;;;;;;;;;24.30;72.20;;;;;;5195942;28;19932;-64
2021/07/30 02:49:46;;;;;;;;;;;24.30;72.90;;;;;;5199029;28;19925;-65
2021/07/30 02:52:18;;;;;;;;;;;24.30;72.10;;;;;;5204732;28;19935;-65
2021/07/30 02:54:50;;;;;;;;;;;24.30;72.20;;;;;;5202682;28;19928;-64
2021/07/30 02:57:23;;;;;;;;;;;24.30;72.00;;;;;;5202126;28;19932;-64
2021/07/30 02:59:55;;;;;;;;;;;24.30;72.00;;;;;;5201790;28;19937;-64
2021/07/30 03:02:27;;;;;;;;;;;24.20;72.00;;;;;;5200327;28;19928;-65
2021/07/30 03:04:59;;;;;;;;;;;24.20;71.90;;;;;;5199559;28;20326;-65
2021/07/30 03:07:32;;;;;;;;;;;24.20;72.00;;;;;;5199912;28;19925;-65
2021/07/30 03:10:04;;;;;;;;;;;24.20;72.00;;;;;;5200984;28;19933;-65
2021/07/30 03:12:36;;;;;;;;;;;24.20;72.00;;;;;;5198565;28;19929;-65
2021/07/30 03:15:09;;;;;;;;;;;24.20;72.20;;;;;;5194600;28;19928;-64
2021/07/30 03:17:41;;;;;;;;;;;24.20;72.10;;;;;;5201609;28;19925;-65
2021/07/30 03:20:13;;;;;;;;;;;24.20;71.90;;;;;;5197941;28;19929;-65
2021/07/30 03:22:47;;;;;;;;;;;24.20;72.20;;;;;;5198180;28;21331;-65
2021/07/30 03:25:19;;;;;;;;;;;24.20;72.00;;;;;;5204230;28;19929;-64
2021/07/30 03:27:51;;;;;;;;;;;24.20;72.20;;;;;;5206153;28;19925;-65
2021/07/30 03:30:23;;;;;;;;;;;24.20;71.90;;;;;;5201802;28;20439;-65
2021/07/30 03:32:55;;;;;;;;;;;24.20;72.00;;;;;;5178252;28;19936;-65
2021/07/30 03:35:28;;;;;;;;;;;24.20;72.10;;;;;;5177114;28;19929;-65
2021/07/30 03:38:00;;;;;;;;;;;24.20;72.10;;;;;;5180438;28;19939;-65
2021/07/30 03:40:32;;;;;;;;;;;24.20;72.70;;;;;;5186699;28;20345;-65
2021/07/30 03:43:04;;;;;;;;;;;24.20;72.00;;;;;;5194298;28;19951;-64
2021/07/30 03:45:37;;;;;;;;;;;24.20;72.10;;;;;;5194879;28;19933;-64
2021/07/30 03:48:09;;;;;;;;;;;24.10;71.90;;;;;;5185801;28;19933;-64
2021/07/30 03:50:41;;;;;;;;;;;24.20;72.20;;;;;;5194556;28;19929;-65
2021/07/30 03:53:14;;;;;;;;;;;24.20;72.00;;;;;;5190543;28;19929;-65
2021/07/30 03:55:46;;;;;;;;;;;24.20;72.00;;;;;;5192579;28;20379;-65
2021/07/30 03:58:19;;;;;;;;;;;24.10;72.00;;;;;;5189226;28;19925;-65
2021/07/30 04:00:51;;;;;;;;;;;24.10;72.10;;;;;;5190195;28;19928;-65
2021/07/30 04:03:23;;;;;;;;;;;24.20;72.10;;;;;;5191172;28;19933;-65
2021/07/30 04:05:55;;;;;;;;;;;24.20;72.20;;;;;;5190416;28;20464;-64
2021/07/30 04:08:28;;;;;;;;;;;24.10;72.10;;;;;;5195013;28;20401;-65
2021/07/30 04:11:00;;;;;;;;;;;24.20;72.20;;;;;;5198104;28;19924;-64
2021/07/30 04:13:33;;;;;;;;;;;24.20;72.10;;;;;;5194245;28;19932;-64
2021/07/30 04:16:06;;;;;;;;;;;24.10;72.10;;;;;;5191204;28;19955;-64
2021/07/30 04:18:39;;;;;;;;;;;24.10;72.20;;;;;;5184197;28;19936;-65
2021/07/30 04:21:11;;;;;;;;;;;24.20;72.30;;;;;;5192338;28;19933;-64
2021/07/30 04:23:43;;;;;;;;;;;24.20;72.20;;;;;;5189603;28;19966;-65
2021/07/30 04:26:15;;;;;;;;;;;24.20;72.10;;;;;;5191477;28;19929;-65
2021/07/30 04:28:48;;;;;;;;;;;24.10;72.10;;;;;;5187889;28;19936;-65
2021/07/30 04:31:20;;;;;;;;;;;24.10;72.20;;;;;;5189175;28;19925;-65
2021/07/30 04:33:52;;;;;;;;;;;24.10;72.20;;;;;;5186350;28;20171;-65
2021/07/30 04:36:24;;;;;;;;;;;24.10;72.30;;;;;;5195989;28;19932;-65
2021/07/30 04:38:56;;;;;;;;;;;24.10;72.20;;;;;;5218696;28;19929;-64
2021/07/30 04:41:29;;;;;;;;;;;24.10;72.20;;;;;;5215484;28;19948;-64
2021/07/30 04:44:01;;;;;;;;;;;24.10;72.30;;;;;;5215490;28;19925;-64
2021/07/30 04:46:33;;;;;;;;;;;24.10;72.50;;;;;;5221317;28;20275;-64
2021/07/30 04:49:05;;;;;;;;;;;24.10;72.30;;;;;;5220013;28;19937;-64
2021/07/30 04:51:37;;;;;;;;;;;24.10;72.30;;;;;;5220151;28;19935;-64
2021/07/30 04:54:10;;;;;;;;;;;24.10;72.30;;;;;;5212687;28;19929;-64
2021/07/30 04:56:42;;;;;;;;;;;24.10;72.40;;;;;;5224965;28;19931;-63
2021/07/30 04:59:14;;;;;;;;;;;24.10;72.40;;;;;;5220106;28;19940;-63
2021/07/30 05:01:46;;;;;;;;;;;24.10;72.40;;;;;;5213969;28;19929;-64
2021/07/30 05:04:19;;;;;;;;;;;24.10;72.40;;;;;;5214767;28;19925;-63
2021/07/30 05:06:52;;;;;;;;;;;24.10;72.50;;;;;;5212010;28;19924;-64
2021/07/30 05:09:24;;;;;;;;;;;24.10;72.60;;;;;;5213713;28;19932;-64
2021/07/30 05:11:56;;;;;;;;;;;24.10;72.50;;;;;;5213363;28;19924;-64
2021/07/30 05:14:28;;;;;;;;;;;24.10;72.70;;;;;;5216831;28;20172;-64
2021/07/30 05:17:01;;;;;;;;;;;24.10;72.60;;;;;;5225720;28;19924;-64
2021/07/30 05:19:33;;;;;;;;;;;24.10;72.60;;;;;;5219610;28;19933;-64
2021/07/30 05:22:05;;;;;;;;;;;24.10;72.60;;;;;;5204659;28;19931;-65
2021/07/30 05:24:37;;;;;;;;;;;24.10;72.60;;;;;;5212938;28;19933;-65
2021/07/30 05:27:11;;;;;;;;;;;24.10;72.60;;;;;;5214215;28;21559;-65
2021/07/30 05:29:45;;;;;;;;;;;24.10;72.60;;;;;;5204910;28;19939;-63
2021/07/30 05:32:17;;;;;;;;;;;24.10;72.60;;;;;;5192318;28;19932;-64
2021/07/30 05:34:49;;;;;;;;;;;24.10;72.70;;;;;;5195430;28;20301;-65
2021/07/30 05:37:21;;;;;;;;;;;24.10;72.80;;;;;;5191182;28;20101;-65
2021/07/30 05:39:54;;;;;;;;;;;24.10;72.90;;;;;;5190275;28;20317;-65
2021/07/30 05:42:26;;;;;;;;;;;24.10;72.90;;;;;;5187076;28;20378;-65
2021/07/30 05:44:58;;;;;;;;;;;24.10;72.90;;;;;;5188469;28;19933;-65
2021/07/30 05:47:30;;;;;;;;;;;24.10;73.00;;;;;;5193961;28;19933;-65
2021/07/30 05:50:03;;;;;;;;;;;24.00;72.90;;;;;;5195646;28;20305;-65
2021/07/30 05:52:35;;;;;;;;;;;24.10;73.00;;;;;;5188608;28;21245;-65
2021/07/30 05:55:07;;;;;;;;;;;24.10;73.10;;;;;;5196487;28;20691;-65
2021/07/30 05:57:40;;;;;;;;;;;24.10;73.10;;;;;;5185755;28;20000;-64
2021/07/30 06:00:12;;;;;;;;;;;24.10;73.10;;;;;;5189098;28;19940;-64
2021/07/30 06:02:44;;;;;;;;;;;24.10;73.10;;;;;;5189935;28;19929;-65
2021/07/30 06:05:17;;;;;;;;;;;24.10;73.30;;;;;;5202431;28;20386;-65
2021/07/30 06:07:49;;;;;;;;;;;24.00;73.20;;;;;;5194086;28;20107;-65
2021/07/30 06:10:21;;;;;;;;;;;24.10;73.30;;;;;;5195062;28;19951;-65
2021/07/30 06:12:54;;;;;;;;;;;24.10;73.30;;;;;;5187655;28;19924;-65
2021/07/30 06:15:26;;;;;;;;;;;24.10;73.40;;;;;;5201821;28;19933;-66
2021/07/30 06:18:00;;;;;;;;;;;24.10;73.40;;;;;;5196880;28;19925;-65
2021/07/30 06:20:32;;;;;;;;;;;24.00;73.50;;;;;;5200389;28;19940;-65
2021/07/30 06:23:04;;;;;;;;;;;24.00;73.50;;;;;;5194582;28;20559;-66
2021/07/30 06:25:37;;;;;;;;;;;24.10;73.60;;;;;;5192094;28;19924;-66
2021/07/30 06:28:09;;;;;;;;;;;24.10;73.70;;;;;;5197756;28;19933;-66
2021/07/30 06:30:41;;;;;;;;;;;24.10;73.70;;;;;;5193619;28;19991;-69
2021/07/30 06:33:13;;;;;;;;;;;24.10;73.70;;;;;;5183878;28;21920;-66
2021/07/30 06:35:49;;;;;;;;;;;24.10;73.70;;;;;;5189883;28;19933;-70
2021/07/30 06:38:22;;;;;;;;;;;24.10;73.70;;;;;;5200822;28;19941;-67
2021/07/30 06:40:54;;;;;;;;;;;24.10;73.70;;;;;;5193244;28;19929;-67
2021/07/30 06:43:26;;;;;;;;;;;24.10;73.70;;;;;;5187746;28;20420;-67
2021/07/30 06:46:01;;;;;;;;;;;24.10;73.70;;;;;;5189496;28;19933;-67
2021/07/30 06:48:33;;;;;;;;;;;24.10;73.80;;;;;;5183340;28;19928;-67
2021/07/30 06:51:06;;;;;;;;;;;24.10;73.70;;;;;;5187844;28;19940;-67
2021/07/30 06:53:38;;;;;;;;;;;24.10;73.80;;;;;;5192885;28;19933;-67
2021/07/30 06:56:11;;;;;;;;;;;24.10;73.90;;;;;;5190896;28;19933;-67
2021/07/30 06:58:47;;;;;;;;;;;24.10;73.80;;;;;;5186381;28;20338;-67
2021/07/30 07:01:19;;;;;;;;;;;24.10;73.90;;;;;;5209918;28;20036;-71
2021/07/30 07:03:51;;;;;;;;;;;24.10;74.00;;;;;;5200671;28;19925;-68
2021/07/30 07:06:24;;;;;;;;;;;24.10;74.00;;;;;;5198273;28;19933;-68
2021/07/30 07:08:56;;;;;;;;;;;24.10;74.10;;;;;;5201681;28;19943;-68
2021/07/30 07:11:28;;;;;;;;;;;24.10;74.10;;;;;;5199609;28;19940;-68
2021/07/30 07:14:00;;;;;;;;;;;24.10;74.10;;;;;;5198783;28;19932;-68
2021/07/30 07:16:33;;;;;;;;;;;24.10;74.10;;;;;;5205299;28;20286;-68
2021/07/30 07:19:09;;;;;;;;;;;24.10;74.20;;;;;;5207165;28;19938;-67
2021/07/30 07:21:41;;;;;;;;;;;24.10;74.90;;;;;;5201661;28;20008;-68
2021/07/30 07:24:13;;;;;;;;;;;24.10;74.80;;;;;;5198414;28;20283;-68
2021/07/30 07:26:46;;;;;;;;;;;24.10;74.10;;;;;;5200519;28;19933;-67
2021/07/30 07:29:18;;;;;;;;;;;24.10;74.20;;;;;;5199814;28;23286;-68
2021/07/30 07:31:50;;;;;;;;;;;24.10;74.20;;;;;;5197490;28;20095;-68
2021/07/30 07:34:22;;;;;;;;;;;24.10;74.40;;;;;;5203699;28;20265;-68
2021/07/30 07:36:55;;;;;;;;;;;24.10;74.30;;;;;;5204291;28;19940;-68
2021/07/30 07:39:27;;;;;;;;;;;24.10;74.50;;;;;;5205217;28;19925;-67
2021/07/30 07:42:01;;;;;;;;;;;24.10;74.60;;;;;;5207018;28;20460;-68
2021/07/30 07:44:34;;;;;;;;;;;24.10;74.60;;;;;;5208619;28;20083;-68
2021/07/30 07:47:06;;;;;;;;;;;24.10;74.70;;;;;;5207537;28;20282;-68
2021/07/30 07:49:38;;;;;;;;;;;24.10;74.70;;;;;;5205994;28;19929;-69
2021/07/30 07:52:10;;;;;;;;;;;24.10;74.70;;;;;;5198583;28;19931;-68
2021/07/30 07:55:03;;;;;;;;;;;24.10;74.70;;;;;;5201618;28;19929;-68
2021/07/30 07:57:35;;;;;;;;;;;24.10;74.60;;;;;;5201335;28;19929;-68
2021/07/30 08:00:08;;;;;;;;;;;24.10;75.30;;;;;;5190715;28;19940;-71
2021/07/30 08:02:43;;;;;;;;;;;24.10;75.70;;;;;;5213480;28;19925;-71
2021/07/30 08:05:15;;;;;;;;;;;24.20;76.10;;;;;;5205692;28;19940;-71
2021/07/30 08:07:48;;;;;;;;;;;24.20;76.30;;;;;;5197995;28;20389;-71
2021/07/30 08:10:20;;;;;;;;;;;24.20;75.50;;;;;;5193503;28;19933;-71
2021/07/30 08:12:52;;;;;;;;;;;24.20;74.80;;;;;;5197268;28;19933;-71
2021/07/30 08:15:24;;;;;;;;;;;24.30;75.00;;;;;;5196954;28;19933;-71
2021/07/30 08:17:56;;;;;;;;;;;24.20;74.90;;;;;;5201454;28;19925;-72
2021/07/30 08:20:29;;;;;;;;;;;24.30;75.00;;;;;;5195608;28;20487;-72
2021/07/30 08:23:01;;;;;;;;;;;24.20;74.80;;;;;;5195657;28;22958;-71
2021/07/30 08:25:33;;;;;;;;;;;24.20;75.00;;;;;;5213522;28;19933;-71
2021/07/30 08:28:05;;;;;;;;;;;24.30;75.10;;;;;;5187316;28;19944;-72
2021/07/30 08:30:38;;;;;;;;;;;24.20;74.60;;;;;;5192574;28;19940;-72
2021/07/30 08:33:10;;;;;;;;;;;24.20;74.10;;;;;;5195415;28;19933;-71
2021/07/30 08:35:42;;;;;;;;;;;24.20;74.10;;;;;;5192755;28;19933;-71
2021/07/30 08:38:15;;;;;;;;;;;24.20;74.10;;;;;;5195877;28;19935;-71
2021/07/30 08:40:47;;;;;;;;;;;24.20;74.10;;;;;;5204141;28;19929;-71
2021/07/30 08:43:19;;;;;;;;;;;24.20;73.90;;;;;;5201323;28;24729;-72
2021/07/30 08:45:51;;;;;;;;;;;24.20;73.90;;;;;;5222832;28;19929;-71
2021/07/30 08:48:24;;;;;;;;;;;24.20;73.90;;;;;;5216974;28;19932;-71
2021/07/30 08:50:57;;;;;;;;;;;24.30;74.20;;;;;;5208586;28;19956;-71
2021/07/30 08:53:29;;;;;;;;;;;24.30;74.40;;;;;;5207972;28;20283;-71
2021/07/30 08:56:02;;;;;;;;;;;24.30;74.30;;;;;;5180279;28;20332;-72
2021/07/30 08:58:35;;;;;;;;;;;24.30;74.30;;;;;;5185853;28;20169;-71
2021/07/30 09:01:08;;;;;;;;;;;24.30;74.20;;;;;;4497331;28;10000292;-71
2021/07/30 09:03:42;;;;;;;;;;;24.30;74.40;;;;;;5189490;28;19944;-70
2021/07/30 09:06:20;;;;;;;;;;;24.40;74.30;;;;;;5197107;28;19929;-71
2021/07/30 09:08:55;;;;;;;;;;;24.40;74.20;;;;;;5198234;28;20294;-71
2021/07/30 09:11:31;;;;;;;;;;;24.40;74.20;;;;;;5196686;28;19925;-70
2021/07/30 09:14:04;;;;;;;;;;;24.40;74.20;;;;;;5199598;28;20081;-71
2021/07/30 09:16:50;;;;;;;;;;;24.40;74.20;;;;;;5194421;28;20420;-71
2021/07/30 09:19:23;;;;;;;;;;;24.40;74.40;;;;;;5198810;28;19933;-71
2021/07/30 09:22:05;;;;;;;;;;;24.40;74.30;;;;;;5201207;28;19940;-71
2021/07/30 09:24:41;;;;;;;;;;;24.40;74.30;;;;;;5200159;28;19929;-71
2021/07/30 09:27:13;;;;;;;;;;;24.40;74.30;;;;;;5204932;28;20303;-71
2021/07/30 09:29:46;;;;;;;;;;;24.40;74.30;;;;;;5205038;28;19928;-72
2021/07/30 09:32:18;;;;;;;;;;;24.40;74.20;;;;;;5204302;28;19933;-72
2021/07/30 09:34:51;;;;;;;;;;;24.50;74.20;;;;;;5197045;28;19940;-71
2021/07/30 09:37:23;;;;;;;;;;;24.50;74.10;;;;;;5192849;28;19940;-72
2021/07/30 09:39:56;;;;;;;;;;;24.50;74.30;;;;;;5199136;28;20567;-72
2021/07/30 09:42:29;;;;;;;;;;;24.50;74.30;;;;;;5200321;28;20394;-71
2021/07/30 09:45:07;;;;;;;;;;;24.50;74.30;;;;;;5199396;28;19936;-71
2021/07/30 09:47:46;;;;;;;;;;;24.50;74.10;;;;;;5199678;28;19947;-72
2021/07/30 09:50:20;;;;;;;;;;;24.50;74.00;;;;;;5200339;28;19944;-72
2021/07/30 09:52:53;;;;;;;;;;;24.50;73.70;;;;;;5201040;28;20003;-72
2021/07/30 09:55:26;;;;;;;;;;;24.50;73.70;;;;;;5205419;28;19933;-72
2021/07/30 09:57:58;;;;;;;;;;;24.50;73.80;;;;;;5198328;28;19929;-77
2021/07/30 10:00:33;;;;;;;;;;;24.50;74.00;;;;;;5188445;28;19944;-76
2021/07/30 10:03:07;;;;;;;;;;;24.60;74.20;;;;;;5189107;28;19929;-75
2021/07/30 10:05:39;;;;;;;;;;;24.60;74.70;;;;;;5190836;28;19929;-76
2021/07/30 10:08:11;;;;;;;;;;;24.70;74.40;;;;;;5197205;28;19928;-76
2021/07/30 10:10:44;;;;;;;;;;;24.70;74.40;;;;;;5190542;28;19967;-75
2021/07/30 10:13:19;;;;;;;;;;;24.80;74.10;;;;;;5193283;28;19947;-75
2021/07/30 10:15:51;;;;;;;;;;;24.90;73.80;;;;;;5196143;28;20374;-77
2021/07/30 10:18:23;;;;;;;;;;;25.00;73.60;;;;;;5198599;28;20410;-77
2021/07/30 10:21:00;;;;;;;;;;;25.10;73.40;;;;;;5198348;28;20974;-76
2021/07/30 10:23:33;;;;;;;;;;;25.20;73.10;;;;;;5201031;28;19929;-76
2021/07/30 10:26:05;;;;;;;;;;;25.30;73.00;;;;;;5192961;28;21018;-77
2021/07/30 10:28:37;;;;;;;;;;;25.30;72.50;;;;;;5199975;28;19959;-76
2021/07/30 10:31:11;;;;;;;;;;;25.40;72.60;;;;;;5201003;28;19933;-75
2021/07/30 10:33:43;;;;;;;;;;;25.50;72.10;;;;;;5200923;28;19936;-77
2021/07/30 10:36:27;;;;;;;;;;;25.60;72.00;;;;;;5204748;28;19929;-77
2021/07/30 10:39:15;;;;;;;;;;;25.70;71.60;;;;;;5203304;28;19933;-77
2021/07/30 10:42:06;;;;;;;;;;;25.70;71.20;;;;;;5187494;28;19933;-77
2021/07/30 10:44:57;;;;;;;;;;;25.80;71.10;;;;;;5189810;28;19929;-77
2021/07/30 10:47:30;;;;;;;;;;;25.80;70.80;;;;;;5196092;28;19933;-74
2021/07/30 10:50:02;;;;;;;;;;;25.90;70.90;;;;;;5200460;28;19940;-79
2021/07/30 10:52:34;;;;;;;;;;;26.00;70.80;;;;;;5202684;28;19929;-77
2021/07/30 10:55:07;;;;;;;;;;;26.00;70.70;;;;;;5202599;28;19933;-77
2021/07/30 10:57:49;;;;;;;;;;;26.00;70.30;;;;;;5197952;28;20292;-75
2021/07/30 11:00:22;;;;;;;;;;;26.10;70.30;;;;;;5192524;28;20298;-77
2021/07/30 11:03:02;;;;;;;;;;;26.20;70.20;;;;;;5184617;28;19933;-77
2021/07/30 11:05:55;;;;;;;;;;;26.20;70.10;;;;;;5182810;28;19928;-75
2021/07/30 11:08:27;;;;;;;;;;;26.30;70.00;;;;;;5179836;28;20694;-76
2021/07/30 11:11:08;;;;;;;;;;;26.30;69.90;;;;;;5179601;28;20002;-77
2021/07/30 11:13:40;;;;;;;;;;;26.30;69.70;;;;;;5166314;28;20550;-78
2021/07/30 11:16:13;;;;;;;;;;;26.40;69.70;;;;;;5189495;28;19935;-75
2021/07/30 11:18:45;;;;;;;;;;;26.40;69.70;;;;;;5169651;28;20453;-78
2021/07/30 11:21:17;;;;;;;;;;;26.50;69.50;;;;;;5193716;28;19929;-78
2021/07/30 11:23:49;;;;;;;;;;;26.50;69.20;;;;;;5156879;28;19928;-77
2021/07/30 11:26:22;;;;;;;;;;;26.50;69.10;;;;;;5177495;28;19939;-77
2021/07/30 11:29:07;;;;;;;;;;;26.60;69.10;;;;;;5191764;28;19929;-78
2021/07/30 11:31:58;;;;;;;;;;;26.60;68.90;;;;;;5170945;28;20395;-78
2021/07/30 11:34:37;;;;;;;;;;;26.60;68.90;;;;;;5167048;28;20647;-78
2021/07/30 11:37:11;;;;;;;;;;;26.70;68.80;;;;;;5166918;28;19943;-78
2021/07/30 11:39:47;;;;;;;;;;;26.70;68.70;;;;;;5179012;28;20956;-77
2021/07/30 11:42:28;;;;;;;;;;;26.70;68.60;;;;;;5158628;28;19940;-77
2021/07/30 11:45:04;;;;;;;;;;;26.70;68.60;;;;;;4453368;28;10000405;-77
2021/07/30 11:47:37;;;;;;;;;;;26.70;68.60;;;;;;5157807;28;20238;-79
2021/07/30 11:50:13;;;;;;;;;;;26.80;68.70;;;;;;5157175;28;19933;-79
2021/07/30 11:52:46;;;;;;;;;;;26.80;68.60;;;;;;5149528;28;19953;-79
2021/07/30 11:55:21;;;;;;;;;;;26.80;68.40;;;;;;5154225;28;20626;-79
2021/07/30 11:57:55;;;;;;;;;;;26.80;68.30;;;;;;5158991;28;19929;-79
2021/07/30 12:00:28;;;;;;;;;;;26.80;68.20;;;;;;5151996;28;19929;-77
2021/07/30 12:03:15;;;;;;;;;;;26.80;68.10;;;;;;5156025;28;19932;-77
2021/07/30 12:05:51;;;;;;;;;;;26.80;68.10;;;;;;5152330;28;19937;-77
2021/07/30 12:08:23;;;;;;;;;;;26.80;68.00;;;;;;5139024;28;21296;-77
2021/07/30 12:10:56;;;;;;;;;;;26.80;67.90;;;;;;5141205;28;20274;-78
2021/07/30 12:13:29;;;;;;;;;;;26.80;67.80;;;;;;5152462;28;20812;-78
2021/07/30 12:16:01;;;;;;;;;;;26.80;67.90;;;;;;5149248;28;20338;-77
2021/07/30 12:18:40;;;;;;;;;;;26.80;67.90;;;;;;5155455;28;20678;-77
2021/07/30 12:21:13;;;;;;;;;;;26.90;67.90;;;;;;5150553;28;20494;-77
2021/07/30 12:23:45;;;;;;;;;;;26.90;68.00;;;;;;5159753;28;19940;-77
2021/07/30 12:26:31;;;;;;;;;;;26.90;67.90;;;;;;5159065;28;19933;-77
2021/07/30 12:29:04;;;;;;;;;;;26.90;68.00;;;;;;5145526;28;19940;-77
2021/07/30 12:31:36;;;;;;;;;;;27.00;67.90;;;;;;5149744;28;19968;-78
2021/07/30 12:34:14;;;;;;;;;;;27.00;67.90;;;;;;5156416;28;20398;-78
2021/07/30 12:36:48;;;;;;;;;;;27.00;67.80;;;;;;5149690;28;21119;-78
2021/07/30 12:39:22;;;;;;;;;;;27.10;67.80;;;;;;5142209;28;20373;-78
2021/07/30 12:41:54;;;;;;;;;;;27.10;67.80;;;;;;5148859;28;20413;-74
2021/07/30 12:44:26;;;;;;;;;;;27.10;67.40;;;;;;5176314;28;20473;-75
2021/07/30 12:46:59;;;;;;;;;;;27.20;65.60;;;;;;5183470;28;19933;-72
2021/07/30 12:49:33;;;;;;;;;;;27.20;64.30;;;;;;5186132;28;19943;-73
2021/07/30 12:52:14;;;;;;;;;;;27.20;63.30;;;;;;5189118;28;19929;-73
2021/07/30 12:54:47;;;;;;;;;;;27.20;63.30;;;;;;5192805;28;19933;-74
2021/07/30 12:57:20;;;;;;;;;;;27.10;62.50;;;;;;5191180;28;20420;-76
2021/07/30 12:59:53;;;;;;;;;;;27.00;62.30;;;;;;5193044;28;19924;-74
2021/07/30 13:02:28;;;;;;;;;;;27.00;62.50;;;;;;5209048;28;19929;-73
2021/07/30 13:05:01;;;;;;;;;;;27.00;62.50;;;;;;5192364;28;20408;-74
2021/07/30 13:07:33;;;;;;;;;;;27.00;62.60;;;;;;5195834;28;19925;-72
2021/07/30 13:10:06;;;;;;;;;;;26.90;62.10;;;;;;5195365;28;19939;-72
2021/07/30 13:12:39;;;;;;;;;;;26.90;62.10;;;;;;5197104;28;19929;-71
2021/07/30 13:15:11;;;;;;;;;;;26.90;62.50;;;;;;5180936;28;19936;-74
2021/07/30 13:17:43;;;;;;;;;;;26.90;62.90;;;;;;5184162;28;19933;-72
2021/07/30 13:20:15;;;;;;;;;;;26.80;62.50;;;;;;5190860;28;19928;-75
2021/07/30 13:22:48;;;;;;;;;;;26.80;62.60;;;;;;5188933;28;20472;-72
2021/07/30 13:25:22;;;;;;;;;;;26.80;62.60;;;;;;5185986;28;20378;-72
2021/07/30 13:27:54;;;;;;;;;;;26.80;62.30;;;;;;5187198;28;19928;-70
2021/07/30 13:30:36;;;;;;;;;;;26.70;62.40;;;;;;5182717;28;19948;-71
2021/07/30 13:33:08;;;;;;;;;;;26.80;62.70;;;;;;5188033;28;20289;-74
2021/07/30 13:35:40;;;;;;;;;;;26.70;62.50;;;;;;5188549;28;20420;-75
2021/07/30 13:38:13;;;;;;;;;;;26.70;62.50;;;;;;5189999;28;20416;-72
2021/07/30 13:40:45;;;;;;;;;;;26.70;62.80;;;;;;5198879;28;19944;-72
2021/07/30 13:43:17;;;;;;;;;;;26.70;63.10;;;;;;5196784;28;19929;-71
2021/07/30 13:45:51;;;;;;;;;;;26.70;62.80;;;;;;5187019;28;19929;-68
2021/07/30 13:48:26;;;;;;;;;;;26.70;62.70;;;;;;5184905;28;19947;-69
2021/07/30 13:51:01;;;;;;;;;;;26.70;62.80;;;;;;5183745;28;19932;-69
2021/07/30 13:53:35;;;;;;;;;;;26.70;62.50;;;;;;5182695;28;19940;-68
2021/07/30 13:56:07;;;;;;;;;;;26.60;62.50;;;;;;5189346;28;19933;-69
2021/07/30 13:58:39;;;;;;;;;;;26.60;62.50;;;;;;5178229;28;19929;-69
2021/07/30 14:01:16;;;;;;;;;;;26.60;62.70;;;;;;5189134;28;20578;-69
2021/07/30 14:03:48;;;;;;;;;;;26.60;63.00;;;;;;5189100;28;20445;-69
2021/07/30 14:06:21;;;;;;;;;;;26.60;62.60;;;;;;5182567;28;19929;-71
2021/07/30 14:08:53;;;;;;;;;;;26.60;62.60;;;;;;5180684;28;19944;-71
2021/07/30 14:11:25;;;;;;;;;;;26.60;62.60;;;;;;5188018;28;19935;-70
2021/07/30 14:13:57;;;;;;;;;;;26.60;62.50;;;;;;5190411;28;19928;-71
2021/07/30 14:16:30;;;;;;;;;;;26.60;62.50;;;;;;5188126;28;19939;-70
2021/07/30 14:19:02;;;;;;;;;;;26.50;62.60;;;;;;5190262;28;19932;-70
2021/07/30 14:21:34;;;;;;;;;;;26.50;62.70;;;;;;5202746;28;19929;-71
2021/07/30 14:24:06;;;;;;;;;;;26.50;62.90;;;;;;5189015;28;19932;-71
2021/07/30 14:26:38;;;;;;;;;;;26.50;63.30;;;;;;5194969;28;19926;-70
2021/07/30 14:29:11;;;;;;;;;;;26.50;63.00;;;;;;5193892;28;19940;-72
2021/07/30 14:31:43;;;;;;;;;;;26.50;62.70;;;;;;5187467;28;21261;-72
2021/07/30 14:34:15;;;;;;;;;;;26.50;63.20;;;;;;5190436;28;22640;-70
2021/07/30 14:36:47;;;;;;;;;;;26.50;63.70;;;;;;5185879;28;19925;-71
2021/07/30 14:39:23;;;;;;;;;;;26.50;63.20;;;;;;5190288;28;19932;-68
2021/07/30 14:41:55;;;;;;;;;;;26.40;62.80;;;;;;5191108;28;20413;-68
2021/07/30 14:44:27;;;;;;;;;;;26.40;62.70;;;;;;5186302;28;20206;-68
2021/07/30 14:47:00;;;;;;;;;;;26.40;62.70;;;;;;5178838;28;20553;-68
2021/07/30 14:49:37;;;;;;;;;;;26.40;62.80;;;;;;5191335;28;20613;-68
2021/07/30 14:52:09;;;;;;;;;;;26.40;62.90;;;;;;5186802;28;19939;-69
2021/07/30 14:54:41;;;;;;;;;;;26.40;62.80;;;;;;5183868;28;19925;-68